createdAt,value
2016-11-26T00:00:31.795Z,0
2016-11-26T00:01:31.782Z,0
2016-11-26T00:02:32.164Z,0
2016-11-26T00:03:31.870Z,0
2016-11-26T00:05:31.859Z,0
2016-11-26T00:06:31.865Z,0
2016-11-26T00:07:34.609Z,0
2016-11-26T00:08:46.834Z,0
2016-11-26T00:09:46.852Z,0
2016-11-26T00:11:31.962Z,0
2016-11-26T00:12:32.053Z,0
2016-11-26T00:13:32.002Z,0
2016-11-26T00:14:32.019Z,0
2016-11-26T00:16:32.051Z,0
2016-11-26T00:17:32.073Z,0
2016-11-26T00:18:32.095Z,0
2016-11-26T00:19:47.022Z,0
2016-11-26T00:20:32.119Z,0
2016-11-26T00:21:32.135Z,0
2016-11-26T00:22:47.076Z,0
2016-11-26T00:23:32.173Z,0
2016-11-26T00:24:47.113Z,0
2016-11-26T00:25:32.223Z,0
2016-11-26T00:26:32.225Z,0
2016-11-26T00:27:32.242Z,0
2016-11-26T00:28:32.280Z,0
2016-11-26T00:29:32.278Z,0
2016-11-26T00:30:32.297Z,0
2016-11-26T00:31:32.314Z,0
2016-11-26T00:32:32.383Z,0
2016-11-26T00:33:32.356Z,0
2016-11-26T00:34:32.365Z,0
2016-11-26T00:35:32.385Z,0
2016-11-26T00:36:32.391Z,0
2016-11-26T00:37:32.412Z,0
2016-11-26T00:38:47.357Z,0
2016-11-26T00:39:32.441Z,0
2016-11-26T00:40:32.471Z,0
2016-11-26T00:41:32.486Z,0
2016-11-26T00:42:32.499Z,0
2016-11-26T00:43:32.527Z,0
2016-11-26T00:44:32.542Z,0
2016-11-26T00:45:32.555Z,0
2016-11-26T00:46:47.496Z,0
2016-11-26T00:47:32.594Z,0
2016-11-26T00:48:32.605Z,0
2016-11-26T00:49:47.554Z,0
2016-11-26T00:50:32.649Z,0
2016-11-26T00:51:32.660Z,0
2016-11-26T00:53:47.623Z,0
2016-11-26T00:54:47.941Z,0
2016-11-26T00:55:32.735Z,0
2016-11-26T00:56:47.664Z,0
2016-11-26T00:57:32.764Z,0
2016-11-26T00:58:47.702Z,0
2016-11-26T00:59:32.798Z,0
2016-11-26T01:00:47.738Z,0
2016-11-26T01:01:32.836Z,0
2016-11-26T01:02:47.769Z,0
2016-11-26T01:03:32.867Z,0
2016-11-26T01:04:32.885Z,0
2016-11-26T01:05:47.827Z,0
2016-11-26T01:06:32.925Z,0
2016-11-26T01:07:32.937Z,0
2016-11-26T01:08:32.957Z,0
2016-11-26T01:09:47.897Z,0
2016-11-26T01:10:32.991Z,0
2016-11-26T01:11:33.006Z,0
2016-11-26T01:12:47.951Z,0
2016-11-26T01:14:33.064Z,0
2016-11-26T01:15:48.007Z,0
2016-11-26T01:17:33.144Z,0
2016-11-26T01:18:33.134Z,0
2016-11-26T01:19:33.147Z,0
2016-11-26T01:20:33.488Z,0
2016-11-26T01:21:33.185Z,0
2016-11-26T01:22:33.206Z,0
2016-11-26T01:23:33.246Z,0
2016-11-26T01:24:33.231Z,0
2016-11-26T01:25:33.254Z,0
2016-11-26T01:26:33.275Z,0
2016-11-26T01:27:33.294Z,0
2016-11-26T01:28:48.227Z,0
2016-11-26T01:29:33.314Z,0
2016-11-26T01:30:33.341Z,0
2016-11-26T01:31:33.353Z,0
2016-11-26T01:32:33.376Z,0
2016-11-26T01:33:33.690Z,0
2016-11-26T01:35:33.427Z,0
2016-11-26T01:36:33.452Z,0
2016-11-26T01:37:48.385Z,0
2016-11-26T01:38:33.513Z,0
2016-11-26T01:39:33.495Z,0
2016-11-26T01:40:33.825Z,0
2016-11-26T01:41:48.457Z,0
2016-11-26T01:42:33.553Z,0
2016-11-26T01:43:48.488Z,0
2016-11-26T01:45:03.430Z,0
2016-11-26T01:45:33.608Z,0
2016-11-26T01:46:48.540Z,0
2016-11-26T01:48:33.649Z,0
2016-11-26T01:49:33.675Z,0
2016-11-26T01:50:33.720Z,0
2016-11-26T01:51:33.701Z,0
2016-11-26T01:52:33.726Z,0
2016-11-26T01:53:33.743Z,0
2016-11-26T01:54:33.762Z,0
2016-11-26T01:55:33.781Z,0
2016-11-26T01:56:33.797Z,0
2016-11-26T01:57:48.738Z,0
2016-11-26T01:58:48.756Z,0
2016-11-26T02:00:48.784Z,0
2016-11-26T02:01:34.192Z,0
2016-11-26T02:02:33.896Z,0
2016-11-26T02:03:48.845Z,0
2016-11-26T02:04:33.934Z,0
2016-11-26T02:05:33.955Z,0
2016-11-26T02:07:33.990Z,0
2016-11-26T02:08:33.999Z,0
2016-11-26T02:09:34.027Z,0
2016-11-26T02:10:34.039Z,0
2016-11-26T02:11:34.052Z,0
2016-11-26T02:12:49.137Z,0
2016-11-26T02:13:34.089Z,0
2016-11-26T02:15:34.126Z,0
2016-11-26T02:16:49.067Z,0
2016-11-26T02:17:34.165Z,0
2016-11-26T02:18:34.182Z,0
2016-11-26T02:19:34.207Z,0
2016-11-26T02:20:34.209Z,0
2016-11-26T02:21:34.222Z,0
2016-11-26T02:22:34.539Z,0
2016-11-26T02:23:34.268Z,0
2016-11-26T02:24:34.286Z,0
2016-11-26T02:25:34.312Z,0
2016-11-26T02:26:34.317Z,0
2016-11-26T02:27:34.330Z,0
2016-11-26T02:28:34.358Z,0
2016-11-26T02:29:34.365Z,0
2016-11-26T02:30:34.692Z,0
2016-11-26T02:31:49.327Z,0
2016-11-26T02:32:34.474Z,0
2016-11-26T02:33:34.442Z,0
2016-11-26T02:34:34.451Z,0
2016-11-26T02:35:34.470Z,0
2016-11-26T02:36:34.490Z,0
2016-11-26T02:37:49.432Z,0
2016-11-26T02:38:34.532Z,0
2016-11-26T02:39:34.544Z,0
2016-11-26T02:40:49.487Z,0
2016-11-26T02:41:34.577Z,0
2016-11-26T02:42:34.595Z,0
2016-11-26T02:43:34.626Z,0
2016-11-26T02:45:34.645Z,0
2016-11-26T02:46:34.664Z,0
2016-11-26T02:48:04.532Z,0
2016-11-26T02:48:49.663Z,0
2016-11-26T02:49:34.720Z,0
2016-11-26T02:50:34.737Z,0
2016-11-26T02:51:34.747Z,0
2016-11-26T02:53:34.789Z,0
2016-11-26T02:54:34.808Z,0
2016-11-26T02:55:34.820Z,0
2016-11-26T02:56:34.836Z,0
2016-11-26T02:57:34.848Z,0
2016-11-26T02:58:34.923Z,0
2016-11-26T02:59:34.885Z,0
2016-11-26T03:00:49.835Z,0
2016-11-26T03:01:49.864Z,0
2016-11-26T03:02:34.938Z,0
2016-11-26T03:03:49.882Z,0
2016-11-26T03:04:34.977Z,0
2016-11-26T03:05:34.993Z,0
2016-11-26T03:06:35.010Z,0
2016-11-26T03:07:35.327Z,0
2016-11-26T03:08:35.044Z,0
2016-11-26T03:09:35.072Z,0
2016-11-26T03:11:35.106Z,0
2016-11-26T03:12:35.116Z,0
2016-11-26T03:13:35.130Z,0
2016-11-26T03:15:35.156Z,0
2016-11-26T03:16:50.101Z,0
2016-11-26T03:17:35.206Z,0
2016-11-26T03:18:35.217Z,0
2016-11-26T03:19:50.164Z,0
2016-11-26T03:20:35.254Z,0
2016-11-26T03:21:35.275Z,0
2016-11-26T03:22:35.291Z,0
2016-11-26T03:23:35.307Z,0
2016-11-26T03:25:35.367Z,0
2016-11-26T03:26:35.356Z,0
2016-11-26T03:27:35.379Z,0
2016-11-26T03:28:35.414Z,0
2016-11-26T03:29:35.411Z,0
2016-11-26T03:31:50.372Z,0
2016-11-26T03:32:35.491Z,0
2016-11-26T03:33:35.476Z,0
2016-11-26T03:34:50.419Z,0
2016-11-26T03:35:50.430Z,0
2016-11-26T03:36:50.458Z,0
2016-11-26T03:37:35.550Z,0
2016-11-26T03:38:35.578Z,0
2016-11-26T03:39:35.589Z,0
2016-11-26T03:40:35.601Z,0
2016-11-26T03:41:35.624Z,0
2016-11-26T03:42:35.637Z,0
2016-11-26T03:43:35.645Z,0
2016-11-26T03:45:35.692Z,0
2016-11-26T03:46:35.706Z,0
2016-11-26T03:47:35.750Z,0
2016-11-26T03:48:50.658Z,0
2016-11-26T03:49:35.755Z,0
2016-11-26T03:50:35.777Z,0
2016-11-26T03:51:50.736Z,0
2016-11-26T03:52:35.806Z,0
2016-11-26T03:53:35.831Z,0
2016-11-26T03:54:50.766Z,0
2016-11-26T03:55:35.854Z,0
2016-11-26T03:56:35.868Z,0
2016-11-26T03:57:35.895Z,0
2016-11-26T03:58:35.912Z,0
2016-11-26T03:59:35.925Z,0
2016-11-26T04:00:35.958Z,0
2016-11-26T04:01:35.969Z,0
2016-11-26T04:02:35.970Z,0
2016-11-26T04:03:35.987Z,0
2016-11-26T04:04:36.017Z,0
2016-11-26T04:05:36.421Z,0
2016-11-26T04:07:36.086Z,0
2016-11-26T04:08:36.077Z,0
2016-11-26T04:09:51.034Z,0
2016-11-26T04:10:36.117Z,0
2016-11-26T04:11:36.129Z,0
2016-11-26T04:12:36.146Z,0
2016-11-26T04:13:36.159Z,0
2016-11-26T04:14:36.183Z,0
2016-11-26T04:15:36.204Z,0
2016-11-26T04:16:36.223Z,0
2016-11-26T04:17:36.547Z,0
2016-11-26T04:18:51.174Z,0
2016-11-26T04:19:51.190Z,0
2016-11-26T04:20:51.212Z,0
2016-11-26T04:21:51.528Z,0
2016-11-26T04:23:06.216Z,0
2016-11-26T04:23:36.346Z,0
2016-11-26T04:24:36.367Z,0
2016-11-26T04:25:36.373Z,0
2016-11-26T04:26:36.390Z,0
2016-11-26T04:27:36.408Z,0
2016-11-26T04:28:36.425Z,0
2016-11-26T04:29:36.443Z,0
2016-11-26T04:30:36.462Z,0
2016-11-26T04:31:36.497Z,0
2016-11-26T04:33:36.518Z,0
2016-11-26T04:34:36.526Z,0
2016-11-26T04:35:36.555Z,0
2016-11-26T04:36:36.867Z,0
2016-11-26T04:37:36.587Z,0
2016-11-26T04:38:51.564Z,0
2016-11-26T04:39:36.626Z,0
2016-11-26T04:40:36.630Z,0
2016-11-26T04:41:36.649Z,0
2016-11-26T04:42:36.664Z,0
2016-11-26T04:44:36.697Z,0
2016-11-26T04:45:36.755Z,0
2016-11-26T04:46:51.659Z,0
2016-11-26T04:47:36.761Z,0
2016-11-26T04:48:36.770Z,0
2016-11-26T04:49:36.785Z,0
2016-11-26T04:50:36.829Z,0
2016-11-26T04:51:36.821Z,0
2016-11-26T04:53:36.861Z,0
2016-11-26T04:54:51.790Z,0
2016-11-26T04:55:36.935Z,0
2016-11-26T04:56:51.826Z,0
2016-11-26T04:57:36.917Z,0
2016-11-26T04:58:36.941Z,0
2016-11-26T04:59:36.962Z,0
2016-11-26T05:00:37.034Z,0
2016-11-26T05:01:36.997Z,0
2016-11-26T05:02:37.014Z,0
2016-11-26T05:03:51.953Z,0
2016-11-26T05:04:51.964Z,0
2016-11-26T05:05:37.112Z,0
2016-11-26T05:06:37.076Z,0
2016-11-26T05:07:37.128Z,0
2016-11-26T05:08:52.029Z,0
2016-11-26T05:10:37.149Z,0
2016-11-26T05:12:37.193Z,0
2016-11-26T05:13:37.199Z,0
2016-11-26T05:14:52.133Z,0
2016-11-26T05:15:37.225Z,0
2016-11-26T05:16:37.251Z,0
2016-11-26T05:17:37.268Z,0
2016-11-26T05:18:37.287Z,0
2016-11-26T05:19:37.301Z,0
2016-11-26T05:20:37.321Z,0
2016-11-26T05:21:37.640Z,0
2016-11-26T05:22:37.352Z,0
2016-11-26T05:23:52.298Z,0
2016-11-26T05:24:37.391Z,0
2016-11-26T05:26:52.338Z,0
2016-11-26T05:27:37.436Z,0
2016-11-26T05:28:52.377Z,0
2016-11-26T05:29:37.466Z,0
2016-11-26T05:30:52.416Z,0
2016-11-26T05:31:37.527Z,0
2016-11-26T05:32:37.841Z,0
2016-11-26T05:33:37.588Z,0
2016-11-26T05:34:52.481Z,0
2016-11-26T05:35:37.586Z,0
2016-11-26T05:36:37.593Z,0
2016-11-26T05:37:37.609Z,0
2016-11-26T05:38:37.622Z,0
2016-11-26T05:39:37.643Z,0
2016-11-26T05:40:37.655Z,0
2016-11-26T05:41:52.602Z,0
2016-11-26T05:43:52.638Z,0
2016-11-26T05:44:37.729Z,0
2016-11-26T05:45:52.675Z,0
2016-11-26T05:46:37.752Z,0
2016-11-26T05:47:37.777Z,0
2016-11-26T05:48:37.792Z,0
2016-11-26T05:49:37.868Z,0
2016-11-26T05:50:37.829Z,0
2016-11-26T05:51:52.818Z,0
2016-11-26T05:52:37.865Z,0
2016-11-26T05:53:52.811Z,0
2016-11-26T05:54:53.124Z,0
2016-11-26T05:55:37.919Z,0
2016-11-26T05:57:52.872Z,0
2016-11-26T05:58:52.891Z,0
2016-11-26T05:59:52.904Z,0
2016-11-26T06:00:38.004Z,0
2016-11-26T06:01:38.012Z,0
2016-11-26T06:02:38.035Z,0
2016-11-26T06:03:38.048Z,0
2016-11-26T06:04:52.993Z,0
2016-11-26T06:05:53.008Z,0
2016-11-26T06:06:38.102Z,0
2016-11-26T06:07:53.046Z,0
2016-11-26T06:08:38.131Z,0
2016-11-26T06:09:53.072Z,0
2016-11-26T06:10:38.468Z,0
2016-11-26T06:11:53.111Z,0
2016-11-26T06:12:53.127Z,0
2016-11-26T06:14:08.069Z,0
2016-11-26T06:14:38.235Z,0
2016-11-26T06:16:38.267Z,0
2016-11-26T06:17:38.285Z,0
2016-11-26T06:18:38.303Z,0
2016-11-26T06:19:38.319Z,0
2016-11-26T06:20:38.336Z,0
2016-11-26T06:21:53.277Z,0
2016-11-26T06:22:38.390Z,0
2016-11-26T06:23:38.388Z,0
2016-11-26T06:24:38.400Z,0
2016-11-26T06:25:53.391Z,0
2016-11-26T06:26:38.458Z,0
2016-11-26T06:27:38.457Z,0
2016-11-26T06:28:53.396Z,0
2016-11-26T06:29:53.414Z,0
2016-11-26T06:30:38.502Z,0
2016-11-26T06:31:38.523Z,0
2016-11-26T06:32:38.539Z,0
2016-11-26T06:33:38.560Z,0
2016-11-26T06:34:38.579Z,0
2016-11-26T06:35:53.515Z,0
2016-11-26T06:36:38.604Z,0
2016-11-26T06:37:38.630Z,0
2016-11-26T06:38:38.645Z,0
2016-11-26T06:39:38.659Z,0
2016-11-26T06:40:53.601Z,0
2016-11-26T06:41:39.034Z,0
2016-11-26T06:42:38.713Z,0
2016-11-26T06:44:08.578Z,0
2016-11-26T06:44:53.665Z,0
2016-11-26T06:45:38.756Z,0
2016-11-26T06:46:53.707Z,0
2016-11-26T06:48:08.639Z,0
2016-11-26T06:48:38.809Z,0
2016-11-26T06:49:38.828Z,0
2016-11-26T06:51:38.858Z,0
2016-11-26T06:52:53.804Z,0
2016-11-26T06:53:38.890Z,0
2016-11-26T06:54:38.914Z,0
2016-11-26T06:55:38.937Z,0
2016-11-26T06:56:38.944Z,0
2016-11-26T06:57:38.964Z,0
2016-11-26T06:59:38.995Z,0
2016-11-26T07:00:39.010Z,0
2016-11-26T07:01:53.954Z,0
2016-11-26T07:02:39.050Z,0
2016-11-26T07:03:39.071Z,0
2016-11-26T07:04:53.999Z,0
2016-11-26T07:05:39.095Z,0
2016-11-26T07:06:39.114Z,0
2016-11-26T07:07:39.133Z,0
2016-11-26T07:08:39.152Z,0
2016-11-26T07:09:39.162Z,0
2016-11-26T07:10:39.531Z,0
2016-11-26T07:11:39.192Z,5
2016-11-26T07:12:39.217Z,5
2016-11-26T07:14:39.254Z,5
2016-11-26T07:15:39.307Z,5
2016-11-26T07:16:54.200Z,5
2016-11-26T07:17:54.221Z,5
2016-11-26T07:18:54.236Z,5
2016-11-26T07:19:39.327Z,5
2016-11-26T07:20:39.343Z,5
2016-11-26T07:21:39.367Z,5
2016-11-26T07:22:39.374Z,5
2016-11-26T07:23:39.398Z,5
2016-11-26T07:24:39.417Z,5
2016-11-26T07:25:39.739Z,5
2016-11-26T07:26:39.443Z,10
2016-11-26T07:27:39.460Z,10
2016-11-26T07:28:39.484Z,10
2016-11-26T07:29:54.425Z,10
2016-11-26T07:31:09.364Z,10
2016-11-26T07:31:54.454Z,10
2016-11-26T07:32:54.475Z,10
2016-11-26T07:33:39.563Z,10
2016-11-26T07:34:39.585Z,10
2016-11-26T07:35:39.621Z,10
2016-11-26T07:36:39.619Z,10
2016-11-26T07:37:39.635Z,10
2016-11-26T07:39:39.663Z,10
2016-11-26T07:40:39.694Z,10
2016-11-26T07:41:39.706Z,10
2016-11-26T07:42:39.717Z,10
2016-11-26T07:43:39.737Z,10
2016-11-26T07:44:39.758Z,10
2016-11-26T07:45:39.763Z,10
2016-11-26T07:46:39.777Z,10
2016-11-26T07:47:39.807Z,10
2016-11-26T07:48:54.733Z,10
2016-11-26T07:49:39.833Z,10
2016-11-26T07:50:39.846Z,10
2016-11-26T07:51:39.864Z,10
2016-11-26T07:52:40.046Z,10
2016-11-26T07:53:54.826Z,10
2016-11-26T07:54:39.917Z,10
2016-11-26T07:55:40.064Z,10
2016-11-26T07:56:39.948Z,10
2016-11-26T07:57:40.019Z,10
2016-11-26T08:00:54.938Z,10
2016-11-26T08:02:40.104Z,10
2016-11-26T08:03:54.991Z,10
2016-11-26T08:04:55.008Z,10
2016-11-26T08:05:40.104Z,10
2016-11-26T08:06:40.150Z,10
2016-11-26T08:07:40.139Z,10
2016-11-26T08:08:40.151Z,15
2016-11-26T08:09:40.170Z,15
2016-11-26T08:10:40.484Z,15
2016-11-26T08:11:55.127Z,15
2016-11-26T08:12:40.217Z,15
2016-11-26T08:13:55.158Z,15
2016-11-26T08:14:40.246Z,15
2016-11-26T08:15:40.269Z,15
2016-11-26T08:16:40.290Z,15
2016-11-26T08:17:40.327Z,15
2016-11-26T08:18:55.238Z,20
2016-11-26T08:19:55.256Z,20
2016-11-26T08:20:40.359Z,20
2016-11-26T08:21:40.370Z,20
2016-11-26T08:22:40.400Z,20
2016-11-26T08:23:55.400Z,20
2016-11-26T08:24:40.439Z,20
2016-11-26T08:25:40.442Z,20
2016-11-26T08:26:40.509Z,20
2016-11-26T08:27:40.470Z,20
2016-11-26T08:28:40.499Z,25
2016-11-26T08:29:40.504Z,25
2016-11-26T08:30:40.518Z,25
2016-11-26T08:31:40.537Z,25
2016-11-26T08:32:40.558Z,25
2016-11-26T08:33:40.576Z,25
2016-11-26T08:34:40.671Z,25
2016-11-26T08:35:40.607Z,25
2016-11-26T08:36:55.538Z,25
2016-11-26T08:37:40.637Z,25
2016-11-26T08:38:55.574Z,25
2016-11-26T08:39:40.674Z,25
2016-11-26T08:40:40.691Z,25
2016-11-26T08:42:55.646Z,25
2016-11-26T08:43:40.770Z,25
2016-11-26T08:44:40.813Z,25
2016-11-26T08:45:40.768Z,25
2016-11-26T08:46:40.785Z,25
2016-11-26T08:47:40.837Z,30
2016-11-26T08:48:40.831Z,30
2016-11-26T08:49:55.762Z,30
2016-11-26T08:50:40.879Z,30
2016-11-26T08:51:55.794Z,30
2016-11-26T08:53:40.920Z,30
2016-11-26T08:54:40.925Z,30
2016-11-26T08:55:40.944Z,30
2016-11-26T08:56:40.961Z,30
2016-11-26T08:57:40.978Z,30
2016-11-26T08:58:41.004Z,30
2016-11-26T08:59:41.037Z,30
2016-11-26T09:00:41.021Z,25
2016-11-26T09:01:41.045Z,25
2016-11-26T09:02:41.061Z,30
2016-11-26T09:03:56.315Z,30
2016-11-26T09:04:41.096Z,30
2016-11-26T09:05:41.117Z,30
2016-11-26T09:06:41.134Z,30
2016-11-26T09:07:56.059Z,30
2016-11-26T09:08:41.157Z,30
2016-11-26T09:09:41.182Z,30
2016-11-26T09:10:56.122Z,30
2016-11-26T09:11:41.216Z,30
2016-11-26T09:12:41.231Z,30
2016-11-26T09:13:41.244Z,30
2016-11-26T09:14:41.271Z,30
2016-11-26T09:15:56.202Z,30
2016-11-26T09:16:41.318Z,30
2016-11-26T09:17:41.320Z,30
2016-11-26T09:18:41.318Z,30
2016-11-26T09:19:41.352Z,30
2016-11-26T09:20:56.282Z,30
2016-11-26T09:21:56.306Z,30
2016-11-26T09:22:41.402Z,30
2016-11-26T09:23:56.337Z,30
2016-11-26T09:24:56.351Z,30
2016-11-26T09:25:56.367Z,30
2016-11-26T09:26:41.461Z,30
2016-11-26T09:27:41.485Z,30
2016-11-26T09:28:41.505Z,30
2016-11-26T09:29:41.623Z,30
2016-11-26T09:30:41.532Z,30
2016-11-26T09:31:41.548Z,30
2016-11-26T09:32:56.489Z,35
2016-11-26T09:34:41.603Z,30
2016-11-26T09:35:56.536Z,30
2016-11-26T09:36:56.557Z,30
2016-11-26T09:37:56.577Z,35
2016-11-26T09:38:56.606Z,35
2016-11-26T09:40:41.701Z,35
2016-11-26T09:41:41.714Z,35
2016-11-26T09:42:56.664Z,35
2016-11-26T09:44:41.773Z,35
2016-11-26T09:45:41.787Z,35
2016-11-26T09:46:41.804Z,35
2016-11-26T09:47:41.816Z,35
2016-11-26T09:48:41.833Z,40
2016-11-26T09:50:56.796Z,40
2016-11-26T09:52:42.112Z,40
2016-11-26T09:53:41.918Z,40
2016-11-26T09:54:56.865Z,40
2016-11-26T09:55:41.964Z,40
2016-11-26T09:56:41.972Z,40
2016-11-26T09:57:56.913Z,40
2016-11-26T09:58:42.012Z,40
2016-11-26T09:59:42.024Z,40
2016-11-26T10:00:42.041Z,35
2016-11-26T10:01:42.063Z,35
2016-11-26T10:03:42.091Z,35
2016-11-26T10:04:42.112Z,35
2016-11-26T10:05:42.132Z,35
2016-11-26T10:06:42.156Z,35
2016-11-26T10:07:57.089Z,35
2016-11-26T10:08:57.105Z,40
2016-11-26T10:09:42.195Z,40
2016-11-26T10:10:42.213Z,40
2016-11-26T10:11:42.241Z,40
2016-11-26T10:12:42.242Z,35
2016-11-26T10:14:42.275Z,35
2016-11-26T10:15:42.323Z,35
2016-11-26T10:16:42.319Z,35
2016-11-26T10:17:42.336Z,35
2016-11-26T10:18:42.347Z,35
2016-11-26T10:19:42.376Z,35
2016-11-26T10:20:42.387Z,35
2016-11-26T10:21:42.406Z,35
2016-11-26T10:22:42.422Z,35
2016-11-26T10:23:42.439Z,35
2016-11-26T10:24:57.377Z,40
2016-11-26T10:25:42.469Z,40
2016-11-26T10:26:57.406Z,40
2016-11-26T10:27:42.507Z,40
2016-11-26T10:28:42.528Z,40
2016-11-26T10:30:12.383Z,45
2016-11-26T10:30:42.566Z,45
2016-11-26T10:31:57.496Z,45
2016-11-26T10:32:42.605Z,45
2016-11-26T10:33:42.606Z,45
2016-11-26T10:34:42.626Z,40
2016-11-26T10:35:42.645Z,40
2016-11-26T10:36:42.659Z,40
2016-11-26T10:37:42.676Z,40
2016-11-26T10:38:42.692Z,40
2016-11-26T10:39:42.711Z,40
2016-11-26T10:40:57.649Z,40
2016-11-26T10:41:42.740Z,40
2016-11-26T10:42:57.681Z,40
2016-11-26T10:43:42.776Z,40
2016-11-26T10:44:57.716Z,40
2016-11-26T10:45:42.812Z,40
2016-11-26T10:46:42.829Z,40
2016-11-26T10:47:42.869Z,40
2016-11-26T10:48:42.860Z,40
2016-11-26T10:49:43.175Z,40
2016-11-26T10:50:42.901Z,40
2016-11-26T10:51:42.915Z,40
2016-11-26T10:52:42.931Z,40
2016-11-26T10:53:42.944Z,40
2016-11-26T10:54:42.972Z,40
2016-11-26T10:55:42.979Z,45
2016-11-26T10:56:57.921Z,45
2016-11-26T10:57:43.040Z,45
2016-11-26T10:58:57.963Z,40
2016-11-26T10:59:43.055Z,40
2016-11-26T11:00:43.069Z,40
2016-11-26T11:01:43.079Z,40
2016-11-26T11:02:43.108Z,40
2016-11-26T11:03:43.119Z,40
2016-11-26T11:04:43.126Z,40
2016-11-26T11:05:43.146Z,40
2016-11-26T11:06:43.161Z,45
2016-11-26T11:07:43.180Z,40
2016-11-26T11:08:43.518Z,45
2016-11-26T11:09:43.276Z,45
2016-11-26T11:10:58.167Z,40
2016-11-26T11:11:58.179Z,40
2016-11-26T11:12:43.269Z,40
2016-11-26T11:14:13.160Z,45
2016-11-26T11:14:58.248Z,45
2016-11-26T11:15:43.348Z,40
2016-11-26T11:16:43.346Z,40
2016-11-26T11:17:43.355Z,40
2016-11-26T11:18:43.373Z,40
2016-11-26T11:19:43.394Z,40
2016-11-26T11:20:43.405Z,40
2016-11-26T11:21:43.431Z,40
2016-11-26T11:22:43.435Z,40
2016-11-26T11:23:43.460Z,40
2016-11-26T11:24:43.481Z,40
2016-11-26T11:25:43.502Z,40
2016-11-26T11:26:58.446Z,40
2016-11-26T11:27:43.527Z,40
2016-11-26T11:28:43.544Z,40
2016-11-26T11:29:58.487Z,40
2016-11-26T11:30:43.582Z,40
2016-11-26T11:31:43.595Z,40
2016-11-26T11:32:43.614Z,40
2016-11-26T11:33:43.642Z,45
2016-11-26T11:34:43.651Z,45
2016-11-26T11:35:44.003Z,45
2016-11-26T11:36:43.685Z,45
2016-11-26T11:37:43.703Z,45
2016-11-26T11:38:43.730Z,45
2016-11-26T11:39:58.663Z,45
2016-11-26T11:40:43.755Z,50
2016-11-26T11:41:43.769Z,50
2016-11-26T11:42:43.796Z,50
2016-11-26T11:44:13.652Z,50
2016-11-26T11:44:43.829Z,50
2016-11-26T11:45:43.842Z,50
2016-11-26T11:46:43.859Z,45
2016-11-26T11:47:43.872Z,40
2016-11-26T11:48:58.812Z,40
2016-11-26T11:49:43.909Z,40
2016-11-26T11:50:43.951Z,45
2016-11-26T11:51:58.866Z,45
2016-11-26T11:52:43.970Z,45
2016-11-26T11:53:43.971Z,45
2016-11-26T11:54:43.997Z,45
2016-11-26T11:55:44.005Z,45
2016-11-26T11:56:44.084Z,45
2016-11-26T11:57:44.036Z,40
2016-11-26T11:58:44.065Z,40
2016-11-26T11:59:44.085Z,40
2016-11-26T12:00:44.142Z,40
2016-11-26T12:02:13.960Z,40
2016-11-26T12:02:44.121Z,40
2016-11-26T12:03:44.148Z,35
2016-11-26T12:05:44.195Z,40
2016-11-26T12:06:44.201Z,40
2016-11-26T12:07:44.224Z,40
2016-11-26T12:08:44.237Z,35
2016-11-26T12:09:44.252Z,35
2016-11-26T12:10:44.263Z,35
2016-11-26T12:11:44.286Z,35
2016-11-26T12:12:44.295Z,30
2016-11-26T12:13:44.307Z,30
2016-11-26T12:14:44.328Z,30
2016-11-26T12:15:44.355Z,30
2016-11-26T12:16:44.368Z,30
2016-11-26T12:18:14.235Z,30
2016-11-26T12:18:44.411Z,30
2016-11-26T12:19:44.426Z,30
2016-11-26T12:20:59.366Z,30
2016-11-26T12:21:44.457Z,30
2016-11-26T12:22:44.476Z,35
2016-11-26T12:23:44.484Z,35
2016-11-26T12:24:44.508Z,35
2016-11-26T12:25:44.536Z,35
2016-11-26T12:26:44.539Z,30
2016-11-26T12:27:44.586Z,30
2016-11-26T12:28:44.612Z,35
2016-11-26T12:29:44.595Z,35
2016-11-26T12:30:44.639Z,35
2016-11-26T12:31:44.621Z,35
2016-11-26T12:32:44.673Z,35
2016-11-26T12:33:59.609Z,35
2016-11-26T12:34:59.593Z,35
2016-11-26T12:35:44.702Z,35
2016-11-26T12:36:59.636Z,35
2016-11-26T12:37:44.731Z,35
2016-11-26T12:38:44.745Z,30
2016-11-26T12:39:45.070Z,30
2016-11-26T12:40:44.782Z,30
2016-11-26T12:41:44.804Z,30
2016-11-26T12:42:44.818Z,30
2016-11-26T12:43:44.839Z,30
2016-11-26T12:44:44.848Z,30
2016-11-26T12:45:44.866Z,25
2016-11-26T12:46:44.893Z,25
2016-11-26T12:47:59.834Z,25
2016-11-26T12:48:59.873Z,25
2016-11-26T12:49:59.857Z,25
2016-11-26T12:50:44.965Z,25
2016-11-26T12:51:44.973Z,25
2016-11-26T12:52:44.990Z,25
2016-11-26T12:53:45.013Z,25
2016-11-26T12:54:45.019Z,25
2016-11-26T12:55:45.331Z,25
2016-11-26T12:56:45.366Z,25
2016-11-26T12:57:45.382Z,30
2016-11-26T12:58:45.087Z,30
2016-11-26T12:59:45.107Z,30
2016-11-26T13:00:45.129Z,30
2016-11-26T13:02:00.070Z,30
2016-11-26T13:03:15.010Z,25
2016-11-26T13:03:45.171Z,25
2016-11-26T13:05:00.119Z,25
2016-11-26T13:06:00.130Z,25
2016-11-26T13:06:45.230Z,25
2016-11-26T13:07:45.256Z,25
2016-11-26T13:08:45.269Z,25
2016-11-26T13:09:45.288Z,25
2016-11-26T13:10:45.293Z,25
2016-11-26T13:12:00.241Z,20
2016-11-26T13:12:45.329Z,20
2016-11-26T13:13:45.683Z,20
2016-11-26T13:14:45.378Z,20
2016-11-26T13:15:45.377Z,20
2016-11-26T13:16:45.397Z,20
2016-11-26T13:17:45.413Z,20
2016-11-26T13:18:45.426Z,20
2016-11-26T13:20:00.673Z,20
2016-11-26T13:20:45.472Z,20
2016-11-26T13:21:45.483Z,20
2016-11-26T13:23:45.515Z,20
2016-11-26T13:24:45.528Z,20
2016-11-26T13:25:45.552Z,20
2016-11-26T13:26:45.572Z,20
2016-11-26T13:27:45.585Z,20
2016-11-26T13:28:45.603Z,20
2016-11-26T13:29:45.619Z,20
2016-11-26T13:30:45.640Z,20
2016-11-26T13:32:00.582Z,20
2016-11-26T13:32:45.671Z,20
2016-11-26T13:33:45.712Z,20
2016-11-26T13:35:00.635Z,15
2016-11-26T13:35:45.721Z,15
2016-11-26T13:37:00.666Z,15
2016-11-26T13:38:00.683Z,15
2016-11-26T13:39:00.695Z,15
2016-11-26T13:39:45.794Z,15
2016-11-26T13:40:45.810Z,15
2016-11-26T13:41:45.822Z,15
2016-11-26T13:42:45.842Z,15
2016-11-26T13:43:45.857Z,15
2016-11-26T13:45:00.800Z,15
2016-11-26T13:45:45.899Z,15
2016-11-26T13:46:45.910Z,15
2016-11-26T13:47:45.928Z,15
2016-11-26T13:48:45.997Z,15
2016-11-26T13:49:45.964Z,15
2016-11-26T13:50:45.979Z,15
2016-11-26T13:51:46.001Z,10
2016-11-26T13:53:00.933Z,10
2016-11-26T13:54:00.953Z,10
2016-11-26T13:54:46.037Z,10
2016-11-26T13:55:46.065Z,10
2016-11-26T13:56:46.089Z,10
2016-11-26T13:57:46.101Z,10
2016-11-26T13:58:46.116Z,10
2016-11-26T13:59:46.129Z,10
2016-11-26T14:01:01.072Z,10
2016-11-26T14:01:46.208Z,10
2016-11-26T14:02:46.185Z,10
2016-11-26T14:03:46.203Z,10
2016-11-26T14:05:01.134Z,10
2016-11-26T14:05:46.236Z,10
2016-11-26T14:06:46.296Z,10
2016-11-26T14:09:16.132Z,10
2016-11-26T14:09:46.308Z,10
2016-11-26T14:11:01.296Z,10
2016-11-26T14:11:46.342Z,10
2016-11-26T14:12:46.352Z,10
2016-11-26T14:13:46.523Z,10
2016-11-26T14:14:46.418Z,10
2016-11-26T14:15:46.409Z,5
2016-11-26T14:16:46.413Z,5
2016-11-26T14:17:46.436Z,5
2016-11-26T14:18:46.455Z,5
2016-11-26T14:19:46.477Z,5
2016-11-26T14:20:46.489Z,5
2016-11-26T14:22:01.433Z,5
2016-11-26T14:22:46.520Z,5
2016-11-26T14:23:46.841Z,5
2016-11-26T14:25:01.475Z,5
2016-11-26T14:25:46.569Z,5
2016-11-26T14:26:46.588Z,5
2016-11-26T14:27:46.611Z,5
2016-11-26T14:28:46.616Z,5
2016-11-26T14:29:46.637Z,5
2016-11-26T14:30:46.652Z,5
2016-11-26T14:31:46.675Z,5
2016-11-26T14:32:46.684Z,5
2016-11-26T14:33:46.709Z,5
2016-11-26T14:34:46.721Z,5
2016-11-26T14:36:01.664Z,5
2016-11-26T14:36:46.756Z,0
2016-11-26T14:37:46.774Z,0
2016-11-26T14:38:46.791Z,0
2016-11-26T14:40:16.654Z,0
2016-11-26T14:40:46.827Z,0
2016-11-26T14:42:01.755Z,0
2016-11-26T14:43:01.773Z,0
2016-11-26T14:43:46.875Z,0
2016-11-26T14:44:46.889Z,0
2016-11-26T14:45:46.910Z,0
2016-11-26T14:46:46.926Z,0
2016-11-26T14:48:01.863Z,0
2016-11-26T14:48:46.950Z,0
2016-11-26T14:49:46.986Z,0
2016-11-26T14:50:46.990Z,0
2016-11-26T14:51:47.002Z,0
2016-11-26T14:53:47.046Z,0
2016-11-26T14:54:47.050Z,0
2016-11-26T14:56:01.996Z,0
2016-11-26T14:57:02.016Z,0
2016-11-26T14:57:47.111Z,0
2016-11-26T14:58:47.430Z,0
2016-11-26T14:59:47.140Z,0
2016-11-26T15:00:47.256Z,0
2016-11-26T15:01:47.170Z,0
2016-11-26T15:02:47.194Z,0
2016-11-26T15:03:47.211Z,0
2016-11-26T15:04:47.222Z,0
2016-11-26T15:05:47.240Z,0
2016-11-26T15:06:47.260Z,0
2016-11-26T15:08:02.193Z,0
2016-11-26T15:09:02.208Z,0
2016-11-26T15:09:47.307Z,0
2016-11-26T15:10:47.314Z,0
2016-11-26T15:12:02.265Z,0
2016-11-26T15:12:47.357Z,0
2016-11-26T15:13:47.376Z,0
2016-11-26T15:15:02.305Z,0
2016-11-26T15:16:47.457Z,0
2016-11-26T15:17:47.436Z,0
2016-11-26T15:18:47.453Z,0
2016-11-26T15:19:47.779Z,0
2016-11-26T15:20:47.494Z,0
2016-11-26T15:21:47.506Z,0